sensor_id;sensor_type;location;lat;lon;timestamp;noise_LAeq;noise_LA_min;noise_LA_max;noise_LA01;noise_LA95
74531;Laerm;63010;55.668;37.878;2022-12-29T00:02:08;55.98;49.76;63.79;;
74531;Laerm;63010;55.668;37.878;2022-12-29T00:04:33;56.04;48.66;66.81;;
74531;Laerm;63010;55.668;37.878;2022-12-29T00:06:59;57.10;50.94;66.97;;
74531;Laerm;63010;55.668;37.878;2022-12-29T00:09:25;57.47;51.07;68.55;;
74531;Laerm;63010;55.668;37.878;2022-12-29T00:11:51;58.00;51.50;74.88;;
74531;Laerm;63010;55.668;37.878;2022-12-29T00:14:16;56.46;51.40;66.76;;
74531;Laerm;63010;55.668;37.878;2022-12-29T00:17:00;58.34;51.70;68.56;;
74531;Laerm;63010;55.668;37.878;2022-12-29T00:19:26;58.57;50.69;75.37;;
74531;Laerm;63010;55.668;37.878;2022-12-29T00:22:12;57.08;51.21;65.17;;
74531;Laerm;63010;55.668;37.878;2022-12-29T00:24:56;59.73;53.78;66.99;;
74531;Laerm;63010;55.668;37.878;2022-12-29T00:27:26;57.50;51.43;65.27;;
74531;Laerm;63010;55.668;37.878;2022-12-29T00:30:17;55.63;50.01;62.58;;
74531;Laerm;63010;55.668;37.878;2022-12-29T00:35:57;56.59;49.21;64.26;;
74531;Laerm;63010;55.668;37.878;2022-12-29T00:38:25;57.80;49.09;66.02;;
74531;Laerm;63010;55.668;37.878;2022-12-29T00:41:11;55.80;48.88;63.83;;
74531;Laerm;63010;55.668;37.878;2022-12-29T00:43:55;58.33;49.48;69.76;;
74531;Laerm;63010;55.668;37.878;2022-12-29T00:46:33;56.31;48.89;64.38;;
74531;Laerm;63010;55.668;37.878;2022-12-29T00:48:59;56.57;50.21;67.35;;
74531;Laerm;63010;55.668;37.878;2022-12-29T00:51:44;56.78;49.33;62.30;;
74531;Laerm;63010;55.668;37.878;2022-12-29T00:54:09;57.86;51.22;64.69;;
74531;Laerm;63010;55.668;37.878;2022-12-29T00:56:35;56.22;50.67;61.30;;
74531;Laerm;63010;55.668;37.878;2022-12-29T00:59:01;58.65;53.01;66.26;;
74531;Laerm;63010;55.668;37.878;2022-12-29T01:01:27;57.37;49.67;66.32;;
74531;Laerm;63010;55.668;37.878;2022-12-29T01:03:53;57.26;50.42;66.49;;
74531;Laerm;63010;55.668;37.878;2022-12-29T01:06:18;56.32;49.42;62.72;;
74531;Laerm;63010;55.668;37.878;2022-12-29T01:08:44;56.79;49.41;63.13;;
74531;Laerm;63010;55.668;37.878;2022-12-29T01:11:11;58.40;50.40;66.24;;
74531;Laerm;63010;55.668;37.878;2022-12-29T01:13:38;57.45;49.55;64.09;;
74531;Laerm;63010;55.668;37.878;2022-12-29T01:16:05;56.67;48.66;63.14;;
74531;Laerm;63010;55.668;37.878;2022-12-29T01:18:31;58.72;51.08;66.44;;
74531;Laerm;63010;55.668;37.878;2022-12-29T01:21:04;59.61;52.55;67.83;;
74531;Laerm;63010;55.668;37.878;2022-12-29T01:23:30;58.28;51.98;64.13;;
74531;Laerm;63010;55.668;37.878;2022-12-29T01:25:56;59.89;50.79;68.25;;
74531;Laerm;63010;55.668;37.878;2022-12-29T01:28:22;58.09;48.17;65.48;;
74531;Laerm;63010;55.668;37.878;2022-12-29T01:30:48;58.44;50.95;63.00;;
74531;Laerm;63010;55.668;37.878;2022-12-29T01:33:14;58.37;51.64;64.07;;
74531;Laerm;63010;55.668;37.878;2022-12-29T01:35:39;59.40;51.41;72.08;;
74531;Laerm;63010;55.668;37.878;2022-12-29T01:38:05;59.59;51.64;67.84;;
74531;Laerm;63010;55.668;37.878;2022-12-29T01:40:31;61.15;52.43;72.96;;
74531;Laerm;63010;55.668;37.878;2022-12-29T01:42:57;60.57;51.85;70.42;;
74531;Laerm;63010;55.668;37.878;2022-12-29T01:45:22;59.16;51.89;65.33;;
74531;Laerm;63010;55.668;37.878;2022-12-29T01:47:58;58.48;52.31;65.00;;
74531;Laerm;63010;55.668;37.878;2022-12-29T01:50:32;58.10;50.78;64.11;;
74531;Laerm;63010;55.668;37.878;2022-12-29T01:53:02;58.44;51.08;68.13;;
74531;Laerm;63010;55.668;37.878;2022-12-29T01:55:33;59.28;52.53;69.44;;
74531;Laerm;63010;55.668;37.878;2022-12-29T01:58:01;58.68;51.63;68.62;;
74531;Laerm;63010;55.668;37.878;2022-12-29T02:00:30;57.70;50.73;66.13;;
74531;Laerm;63010;55.668;37.878;2022-12-29T02:02:55;58.36;52.41;63.68;;
74531;Laerm;63010;55.668;37.878;2022-12-29T02:05:28;58.91;51.94;67.32;;
74531;Laerm;63010;55.668;37.878;2022-12-29T02:07:57;59.18;51.85;67.50;;
74531;Laerm;63010;55.668;37.878;2022-12-29T02:10:26;58.27;49.54;64.13;;
74531;Laerm;63010;55.668;37.878;2022-12-29T02:12:53;58.27;52.29;63.68;;
74531;Laerm;63010;55.668;37.878;2022-12-29T02:15:30;59.05;52.83;66.39;;
74531;Laerm;63010;55.668;37.878;2022-12-29T02:27:18;59.66;54.29;65.05;;
74531;Laerm;63010;55.668;37.878;2022-12-29T02:35:35;59.88;53.52;66.12;;
74531;Laerm;63010;55.668;37.878;2022-12-29T02:38:21;58.78;52.68;63.86;;
74531;Laerm;63010;55.668;37.878;2022-12-29T02:40:57;58.91;51.83;65.01;;
74531;Laerm;63010;55.668;37.878;2022-12-29T02:43:33;60.38;52.83;66.01;;
74531;Laerm;63010;55.668;37.878;2022-12-29T02:46:17;59.62;52.70;68.52;;
74531;Laerm;63010;55.668;37.878;2022-12-29T02:48:54;57.92;51.92;62.59;;
74531;Laerm;63010;55.668;37.878;2022-12-29T02:51:50;58.85;54.00;64.16;;
74531;Laerm;63010;55.668;37.878;2022-12-29T02:54:18;59.78;53.10;64.24;;
74531;Laerm;63010;55.668;37.878;2022-12-29T02:57:08;59.70;54.67;65.59;;
74531;Laerm;63010;55.668;37.878;2022-12-29T02:59:34;59.40;52.23;64.16;;
74531;Laerm;63010;55.668;37.878;2022-12-29T03:02:14;60.50;53.84;69.59;;
74531;Laerm;63010;55.668;37.878;2022-12-29T03:13:35;57.08;51.57;61.76;;
74531;Laerm;63010;55.668;37.878;2022-12-29T03:16:28;56.64;50.94;64.96;;
74531;Laerm;63010;55.668;37.878;2022-12-29T03:19:09;53.66;49.92;58.83;;
74531;Laerm;63010;55.668;37.878;2022-12-29T03:21:44;54.00;48.84;62.74;;
74531;Laerm;63010;55.668;37.878;2022-12-29T03:24:35;59.94;49.16;74.48;;
74531;Laerm;63010;55.668;37.878;2022-12-29T03:27:05;66.82;52.35;81.24;;
74531;Laerm;63010;55.668;37.878;2022-12-29T03:29:35;55.45;51.34;63.86;;
74531;Laerm;63010;55.668;37.878;2022-12-29T03:32:03;54.35;51.00;59.40;;
74531;Laerm;63010;55.668;37.878;2022-12-29T03:34:30;54.60;50.72;61.05;;
74531;Laerm;63010;55.668;37.878;2022-12-29T03:37:04;54.83;50.36;59.48;;
74531;Laerm;63010;55.668;37.878;2022-12-29T03:39:31;54.44;50.26;63.00;;
74531;Laerm;63010;55.668;37.878;2022-12-29T03:42:04;55.08;51.40;62.01;;
74531;Laerm;63010;55.668;37.878;2022-12-29T03:44:35;58.07;52.00;71.12;;
74531;Laerm;63010;55.668;37.878;2022-12-29T03:47:01;56.78;52.16;64.98;;
74531;Laerm;63010;55.668;37.878;2022-12-29T03:49:27;55.31;51.44;60.04;;
74531;Laerm;63010;55.668;37.878;2022-12-29T03:51:53;55.71;50.29;62.26;;
74531;Laerm;63010;55.668;37.878;2022-12-29T03:54:19;57.70;51.65;71.78;;
74531;Laerm;63010;55.668;37.878;2022-12-29T03:56:44;55.44;50.06;61.98;;
74531;Laerm;63010;55.668;37.878;2022-12-29T03:59:10;55.63;52.73;59.59;;
74531;Laerm;63010;55.668;37.878;2022-12-29T04:01:35;56.47;51.40;64.67;;
74531;Laerm;63010;55.668;37.878;2022-12-29T04:04:01;56.65;52.40;65.56;;
74531;Laerm;63010;55.668;37.878;2022-12-29T04:06:26;55.69;51.26;60.42;;
74531;Laerm;63010;55.668;37.878;2022-12-29T04:08:52;54.72;51.87;57.68;;
74531;Laerm;63010;55.668;37.878;2022-12-29T04:11:17;54.38;50.11;59.62;;
74531;Laerm;63010;55.668;37.878;2022-12-29T04:13:43;55.43;52.36;59.12;;
74531;Laerm;63010;55.668;37.878;2022-12-29T04:16:08;54.65;51.37;58.88;;
74531;Laerm;63010;55.668;37.878;2022-12-29T04:18:34;55.70;51.34;67.97;;
74531;Laerm;63010;55.668;37.878;2022-12-29T04:21:00;57.72;52.84;69.82;;
74531;Laerm;63010;55.668;37.878;2022-12-29T04:23:26;55.20;52.19;59.04;;
74531;Laerm;63010;55.668;37.878;2022-12-29T04:25:52;55.49;49.93;61.57;;
74531;Laerm;63010;55.668;37.878;2022-12-29T04:28:18;55.79;51.83;66.31;;
74531;Laerm;63010;55.668;37.878;2022-12-29T04:30:44;56.48;52.45;65.36;;
74531;Laerm;63010;55.668;37.878;2022-12-29T04:33:10;54.87;51.64;60.24;;
74531;Laerm;63010;55.668;37.878;2022-12-29T04:35:36;55.57;51.18;64.04;;
74531;Laerm;63010;55.668;37.878;2022-12-29T04:38:02;56.47;52.29;62.73;;
74531;Laerm;63010;55.668;37.878;2022-12-29T04:40:27;56.90;52.85;65.80;;
74531;Laerm;63010;55.668;37.878;2022-12-29T04:42:53;57.04;52.27;62.40;;
74531;Laerm;63010;55.668;37.878;2022-12-29T04:45:19;57.00;53.00;64.99;;
74531;Laerm;63010;55.668;37.878;2022-12-29T04:47:44;59.57;52.22;76.12;;
74531;Laerm;63010;55.668;37.878;2022-12-29T04:50:10;55.58;51.22;61.04;;
74531;Laerm;63010;55.668;37.878;2022-12-29T04:52:36;56.82;52.56;64.57;;
74531;Laerm;63010;55.668;37.878;2022-12-29T04:55:03;56.78;52.04;71.61;;
74531;Laerm;63010;55.668;37.878;2022-12-29T04:57:29;57.29;51.83;71.55;;
74531;Laerm;63010;55.668;37.878;2022-12-29T04:59:55;57.51;52.14;72.34;;
74531;Laerm;63010;55.668;37.878;2022-12-29T05:02:20;55.74;52.77;61.35;;
74531;Laerm;63010;55.668;37.878;2022-12-29T05:04:46;56.71;52.03;66.44;;
74531;Laerm;63010;55.668;37.878;2022-12-29T05:07:12;55.67;52.38;60.78;;
74531;Laerm;63010;55.668;37.878;2022-12-29T05:09:37;56.98;52.90;63.08;;
74531;Laerm;63010;55.668;37.878;2022-12-29T05:12:03;57.04;52.53;64.70;;
74531;Laerm;63010;55.668;37.878;2022-12-29T05:14:29;57.17;52.68;66.07;;
74531;Laerm;63010;55.668;37.878;2022-12-29T05:16:54;59.21;52.73;71.73;;
74531;Laerm;63010;55.668;37.878;2022-12-29T05:19:20;58.10;52.84;67.43;;
74531;Laerm;63010;55.668;37.878;2022-12-29T05:21:45;56.59;53.08;62.49;;
74531;Laerm;63010;55.668;37.878;2022-12-29T05:24:11;57.41;53.74;67.52;;
74531;Laerm;63010;55.668;37.878;2022-12-29T05:26:36;56.94;53.35;62.71;;
74531;Laerm;63010;55.668;37.878;2022-12-29T05:29:02;57.97;54.17;65.14;;
74531;Laerm;63010;55.668;37.878;2022-12-29T05:31:27;56.93;53.38;64.78;;
74531;Laerm;63010;55.668;37.878;2022-12-29T05:33:53;56.81;53.07;62.87;;
74531;Laerm;63010;55.668;37.878;2022-12-29T05:36:19;57.26;53.22;65.65;;
74531;Laerm;63010;55.668;37.878;2022-12-29T05:38:45;57.04;52.99;63.28;;
74531;Laerm;63010;55.668;37.878;2022-12-29T05:41:10;58.95;53.14;73.46;;
74531;Laerm;63010;55.668;37.878;2022-12-29T05:43:36;60.02;53.30;72.21;;
74531;Laerm;63010;55.668;37.878;2022-12-29T05:46:02;59.73;54.61;71.51;;
74531;Laerm;63010;55.668;37.878;2022-12-29T05:48:28;56.75;53.01;61.41;;
74531;Laerm;63010;55.668;37.878;2022-12-29T05:50:54;56.22;51.74;63.14;;
74531;Laerm;63010;55.668;37.878;2022-12-29T05:53:19;56.62;52.26;66.99;;
74531;Laerm;63010;55.668;37.878;2022-12-29T05:55:48;57.71;53.50;65.36;;
74531;Laerm;63010;55.668;37.878;2022-12-29T05:58:15;58.86;54.66;65.32;;
74531;Laerm;63010;55.668;37.878;2022-12-29T06:00:40;59.20;54.60;64.67;;
74531;Laerm;63010;55.668;37.878;2022-12-29T06:03:06;59.98;56.73;67.08;;
74531;Laerm;63010;55.668;37.878;2022-12-29T06:05:31;60.10;56.69;64.26;;
74531;Laerm;63010;55.668;37.878;2022-12-29T06:07:57;59.44;55.58;63.63;;
74531;Laerm;63010;55.668;37.878;2022-12-29T06:10:22;59.12;56.10;63.08;;
74531;Laerm;63010;55.668;37.878;2022-12-29T06:12:48;61.25;55.47;73.83;;
74531;Laerm;63010;55.668;37.878;2022-12-29T06:15:14;60.22;55.88;66.98;;
74531;Laerm;63010;55.668;37.878;2022-12-29T06:17:40;59.74;55.68;63.74;;
74531;Laerm;63010;55.668;37.878;2022-12-29T06:20:07;59.38;55.50;63.16;;
74531;Laerm;63010;55.668;37.878;2022-12-29T06:22:33;59.58;55.03;65.02;;
74531;Laerm;63010;55.668;37.878;2022-12-29T06:24:58;61.64;57.75;70.61;;
74531;Laerm;63010;55.668;37.878;2022-12-29T06:27:24;60.97;57.37;69.61;;
74531;Laerm;63010;55.668;37.878;2022-12-29T06:29:50;59.54;55.10;65.63;;
74531;Laerm;63010;55.668;37.878;2022-12-29T06:32:15;59.82;55.42;68.93;;
74531;Laerm;63010;55.668;37.878;2022-12-29T06:34:41;59.64;55.22;65.55;;
74531;Laerm;63010;55.668;37.878;2022-12-29T06:37:07;59.53;55.24;64.75;;
74531;Laerm;63010;55.668;37.878;2022-12-29T06:39:33;59.95;55.85;67.65;;
74531;Laerm;63010;55.668;37.878;2022-12-29T06:41:58;59.85;56.10;67.91;;
74531;Laerm;63010;55.668;37.878;2022-12-29T06:44:24;61.30;56.48;76.43;;
74531;Laerm;63010;55.668;37.878;2022-12-29T06:46:50;60.09;56.01;63.82;;
74531;Laerm;63010;55.668;37.878;2022-12-29T06:49:16;60.14;56.30;64.19;;
74531;Laerm;63010;55.668;37.878;2022-12-29T06:51:42;60.21;57.16;68.91;;
74531;Laerm;63010;55.668;37.878;2022-12-29T06:54:07;60.32;56.12;65.07;;
74531;Laerm;63010;55.668;37.878;2022-12-29T06:56:33;60.65;57.11;65.83;;
74531;Laerm;63010;55.668;37.878;2022-12-29T06:58:59;59.51;55.51;62.59;;
74531;Laerm;63010;55.668;37.878;2022-12-29T07:01:27;60.82;57.15;68.21;;
74531;Laerm;63010;55.668;37.878;2022-12-29T07:03:53;61.67;56.38;68.12;;
74531;Laerm;63010;55.668;37.878;2022-12-29T07:06:18;60.64;55.05;70.96;;
74531;Laerm;63010;55.668;37.878;2022-12-29T07:08:44;60.81;56.78;65.36;;
74531;Laerm;63010;55.668;37.878;2022-12-29T07:11:10;60.03;56.43;65.67;;
74531;Laerm;63010;55.668;37.878;2022-12-29T07:13:35;60.62;57.11;67.06;;
74531;Laerm;63010;55.668;37.878;2022-12-29T07:16:10;60.38;56.48;64.93;;
74531;Laerm;63010;55.668;37.878;2022-12-29T07:18:35;61.12;57.26;68.66;;
74531;Laerm;63010;55.668;37.878;2022-12-29T07:21:01;61.04;57.66;70.49;;
74531;Laerm;63010;55.668;37.878;2022-12-29T07:23:27;60.10;55.54;65.24;;
74531;Laerm;63010;55.668;37.878;2022-12-29T07:26:04;60.08;56.14;65.46;;
74531;Laerm;63010;55.668;37.878;2022-12-29T07:28:30;62.01;57.16;73.71;;
74531;Laerm;63010;55.668;37.878;2022-12-29T07:30:58;60.40;57.03;69.63;;
74531;Laerm;63010;55.668;37.878;2022-12-29T07:33:24;61.38;57.02;67.10;;
74531;Laerm;63010;55.668;37.878;2022-12-29T07:35:50;59.94;56.36;66.51;;
74531;Laerm;63010;55.668;37.878;2022-12-29T07:38:15;59.19;56.29;63.15;;
74531;Laerm;63010;55.668;37.878;2022-12-29T07:40:42;58.43;54.09;64.70;;
74531;Laerm;63010;55.668;37.878;2022-12-29T07:43:08;58.06;54.12;64.39;;
74531;Laerm;63010;55.668;37.878;2022-12-29T07:45:33;58.93;55.61;63.84;;
74531;Laerm;63010;55.668;37.878;2022-12-29T07:47:59;59.44;55.88;63.39;;
74531;Laerm;63010;55.668;37.878;2022-12-29T07:50:25;59.68;55.50;64.65;;
74531;Laerm;63010;55.668;37.878;2022-12-29T07:52:50;60.46;56.38;64.66;;
74531;Laerm;63010;55.668;37.878;2022-12-29T07:55:16;60.97;56.87;65.00;;
74531;Laerm;63010;55.668;37.878;2022-12-29T07:57:42;60.99;57.60;66.14;;
74531;Laerm;63010;55.668;37.878;2022-12-29T08:00:08;61.55;56.99;66.57;;
74531;Laerm;63010;55.668;37.878;2022-12-29T08:02:35;60.22;56.48;63.46;;
74531;Laerm;63010;55.668;37.878;2022-12-29T08:05:01;61.39;57.31;67.99;;
74531;Laerm;63010;55.668;37.878;2022-12-29T08:07:28;61.61;58.24;68.42;;
74531;Laerm;63010;55.668;37.878;2022-12-29T08:09:53;61.26;57.58;65.09;;
74531;Laerm;63010;55.668;37.878;2022-12-29T08:12:19;61.03;57.38;67.62;;
74531;Laerm;63010;55.668;37.878;2022-12-29T08:14:45;60.35;56.60;65.90;;
74531;Laerm;63010;55.668;37.878;2022-12-29T08:17:10;60.53;55.95;65.97;;
74531;Laerm;63010;55.668;37.878;2022-12-29T08:19:36;58.26;54.39;67.44;;
74531;Laerm;63010;55.668;37.878;2022-12-29T08:22:02;58.70;54.65;67.33;;
74531;Laerm;63010;55.668;37.878;2022-12-29T08:24:28;58.76;54.00;71.76;;
74531;Laerm;63010;55.668;37.878;2022-12-29T08:26:54;58.52;53.96;69.01;;
74531;Laerm;63010;55.668;37.878;2022-12-29T08:29:20;59.22;53.69;68.88;;
74531;Laerm;63010;55.668;37.878;2022-12-29T08:31:47;59.17;55.12;63.47;;
74531;Laerm;63010;55.668;37.878;2022-12-29T08:34:13;58.48;54.20;67.32;;
74531;Laerm;63010;55.668;37.878;2022-12-29T08:36:38;58.18;54.95;66.09;;
74531;Laerm;63010;55.668;37.878;2022-12-29T08:39:04;57.96;54.17;67.27;;
74531;Laerm;63010;55.668;37.878;2022-12-29T08:41:30;58.08;53.82;65.29;;
74531;Laerm;63010;55.668;37.878;2022-12-29T08:43:56;57.59;53.69;64.79;;
74531;Laerm;63010;55.668;37.878;2022-12-29T08:46:21;58.06;54.61;66.68;;
74531;Laerm;63010;55.668;37.878;2022-12-29T08:48:47;57.59;54.07;62.68;;
74531;Laerm;63010;55.668;37.878;2022-12-29T08:51:13;59.23;54.56;71.81;;
74531;Laerm;63010;55.668;37.878;2022-12-29T08:53:39;57.78;53.44;66.10;;
74531;Laerm;63010;55.668;37.878;2022-12-29T08:56:05;58.00;54.39;69.32;;
74531;Laerm;63010;55.668;37.878;2022-12-29T08:58:31;58.82;54.09;68.47;;
74531;Laerm;63010;55.668;37.878;2022-12-29T09:00:57;58.39;52.67;68.91;;
74531;Laerm;63010;55.668;37.878;2022-12-29T09:03:24;56.93;53.50;65.32;;
74531;Laerm;63010;55.668;37.878;2022-12-29T09:05:51;59.25;53.52;70.43;;
74531;Laerm;63010;55.668;37.878;2022-12-29T09:08:17;57.59;52.57;65.66;;
74531;Laerm;63010;55.668;37.878;2022-12-29T09:10:43;57.07;54.06;61.99;;
74531;Laerm;63010;55.668;37.878;2022-12-29T09:13:09;58.01;52.79;69.19;;
74531;Laerm;63010;55.668;37.878;2022-12-29T09:15:35;58.35;53.82;65.89;;
74531;Laerm;63010;55.668;37.878;2022-12-29T09:18:01;56.78;53.11;61.47;;
74531;Laerm;63010;55.668;37.878;2022-12-29T09:20:27;57.86;54.85;62.47;;
74531;Laerm;63010;55.668;37.878;2022-12-29T09:22:52;56.35;53.13;62.22;;
74531;Laerm;63010;55.668;37.878;2022-12-29T09:25:19;57.46;53.94;68.15;;
74531;Laerm;63010;55.668;37.878;2022-12-29T09:27:45;57.55;53.98;62.89;;
74531;Laerm;63010;55.668;37.878;2022-12-29T09:30:13;57.11;53.46;63.18;;
74531;Laerm;63010;55.668;37.878;2022-12-29T09:32:40;57.31;53.30;64.63;;
74531;Laerm;63010;55.668;37.878;2022-12-29T09:35:06;56.69;53.31;61.03;;
74531;Laerm;63010;55.668;37.878;2022-12-29T09:37:31;56.44;52.33;62.61;;
74531;Laerm;63010;55.668;37.878;2022-12-29T09:39:57;62.07;52.20;77.78;;
74531;Laerm;63010;55.668;37.878;2022-12-29T09:42:39;56.78;53.60;60.08;;
74531;Laerm;63010;55.668;37.878;2022-12-29T09:47:32;58.73;52.62;71.99;;
74531;Laerm;63010;55.668;37.878;2022-12-29T09:50:23;55.75;51.91;60.01;;
74531;Laerm;63010;55.668;37.878;2022-12-29T09:53:01;56.31;52.68;61.63;;
74531;Laerm;63010;55.668;37.878;2022-12-29T09:55:38;61.08;53.43;74.10;;
74531;Laerm;63010;55.668;37.878;2022-12-29T09:58:12;56.54;53.06;69.12;;
74531;Laerm;63010;55.668;37.878;2022-12-29T10:00:52;56.36;53.30;66.10;;
74531;Laerm;63010;55.668;37.878;2022-12-29T10:03:20;57.05;53.81;62.04;;
74531;Laerm;63010;55.668;37.878;2022-12-29T10:08:39;57.23;53.88;62.74;;
74531;Laerm;63010;55.668;37.878;2022-12-29T10:14:08;57.79;54.15;66.03;;
74531;Laerm;63010;55.668;37.878;2022-12-29T10:19:28;60.88;56.80;66.05;;
74531;Laerm;63010;55.668;37.878;2022-12-29T10:24:34;60.47;56.35;67.14;;
74531;Laerm;63010;55.668;37.878;2022-12-29T10:27:03;60.08;56.21;66.82;;
74531;Laerm;63010;55.668;37.878;2022-12-29T10:29:38;60.50;56.77;64.24;;
74531;Laerm;63010;55.668;37.878;2022-12-29T10:32:06;60.26;56.10;69.55;;
74531;Laerm;63010;55.668;37.878;2022-12-29T10:34:52;58.66;54.86;66.09;;
74531;Laerm;63010;55.668;37.878;2022-12-29T10:37:41;58.23;55.04;61.88;;
74531;Laerm;63010;55.668;37.878;2022-12-29T10:42:57;59.64;55.30;65.05;;
74531;Laerm;63010;55.668;37.878;2022-12-29T10:45:29;60.07;55.71;69.88;;
74531;Laerm;63010;55.668;37.878;2022-12-29T10:48:06;59.01;55.32;66.19;;
74531;Laerm;63010;55.668;37.878;2022-12-29T10:50:34;59.82;56.03;65.89;;
74531;Laerm;63010;55.668;37.878;2022-12-29T10:53:02;59.57;55.33;64.47;;
74531;Laerm;63010;55.668;37.878;2022-12-29T10:55:35;59.47;54.89;65.30;;
74531;Laerm;63010;55.668;37.878;2022-12-29T10:58:04;64.16;55.10;97.88;;
74531;Laerm;63010;55.668;37.878;2022-12-29T11:00:31;59.66;55.08;72.45;;
74531;Laerm;63010;55.668;37.878;2022-12-29T11:08:36;56.75;53.23;62.55;;
74531;Laerm;63010;55.668;37.878;2022-12-29T11:11:05;56.36;52.59;72.69;;
74531;Laerm;63010;55.668;37.878;2022-12-29T11:13:33;56.75;53.15;64.39;;
74531;Laerm;63010;55.668;37.878;2022-12-29T11:15:59;57.60;52.98;70.63;;
74531;Laerm;63010;55.668;37.878;2022-12-29T11:18:35;58.02;53.85;69.48;;
74531;Laerm;63010;55.668;37.878;2022-12-29T11:21:05;59.00;54.27;63.61;;
74531;Laerm;63010;55.668;37.878;2022-12-29T11:23:33;59.84;56.41;66.63;;
74531;Laerm;63010;55.668;37.878;2022-12-29T11:28:37;59.01;55.63;65.39;;
74531;Laerm;63010;55.668;37.878;2022-12-29T11:31:04;62.53;55.15;83.50;;
74531;Laerm;63010;55.668;37.878;2022-12-29T11:33:31;58.90;54.63;62.87;;
74531;Laerm;63010;55.668;37.878;2022-12-29T11:38:40;58.69;54.29;67.80;;
74531;Laerm;63010;55.668;37.878;2022-12-29T11:41:11;59.11;55.00;69.77;;
74531;Laerm;63010;55.668;37.878;2022-12-29T11:43:39;59.20;54.73;64.86;;
74531;Laerm;63010;55.668;37.878;2022-12-29T11:46:14;58.38;54.84;62.86;;
74531;Laerm;63010;55.668;37.878;2022-12-29T11:48:42;58.21;54.34;63.77;;
74531;Laerm;63010;55.668;37.878;2022-12-29T11:51:08;58.12;54.72;63.83;;
74531;Laerm;63010;55.668;37.878;2022-12-29T11:53:43;58.84;54.10;70.37;;
74531;Laerm;63010;55.668;37.878;2022-12-29T11:56:13;57.68;53.33;74.17;;
74531;Laerm;63010;55.668;37.878;2022-12-29T11:58:40;57.70;52.57;71.84;;
74531;Laerm;63010;55.668;37.878;2022-12-29T12:03:38;55.61;51.62;66.79;;
74531;Laerm;63010;55.668;37.878;2022-12-29T12:06:12;56.29;51.66;68.79;;
74531;Laerm;63010;55.668;37.878;2022-12-29T12:08:52;56.74;52.11;72.00;;
74531;Laerm;63010;55.668;37.878;2022-12-29T12:11:24;56.89;52.37;72.55;;
74531;Laerm;63010;55.668;37.878;2022-12-29T12:16:57;56.92;52.32;65.76;;
74531;Laerm;63010;55.668;37.878;2022-12-29T12:22:34;56.40;52.31;61.62;;
74531;Laerm;63010;55.668;37.878;2022-12-29T12:25:17;55.93;51.95;62.15;;
74531;Laerm;63010;55.668;37.878;2022-12-29T12:28:00;55.92;51.95;69.25;;
74531;Laerm;63010;55.668;37.878;2022-12-29T12:30:31;55.84;52.11;61.62;;
74531;Laerm;63010;55.668;37.878;2022-12-29T12:33:05;57.32;51.72;71.61;;
74531;Laerm;63010;55.668;37.878;2022-12-29T12:40:52;60.26;52.49;78.04;;
74531;Laerm;63010;55.668;37.878;2022-12-29T12:43:54;56.10;52.64;64.28;;
74531;Laerm;63010;55.668;37.878;2022-12-29T12:46:42;56.52;52.12;64.73;;
74531;Laerm;63010;55.668;37.878;2022-12-29T13:01:04;60.01;55.23;71.66;;
74531;Laerm;63010;55.668;37.878;2022-12-29T13:22:42;58.24;53.94;61.97;;
74531;Laerm;63010;55.668;37.878;2022-12-29T13:25:33;57.83;53.76;62.19;;
74531;Laerm;63010;55.668;37.878;2022-12-29T13:31:10;57.38;53.72;62.44;;
74531;Laerm;63010;55.668;37.878;2022-12-29T13:34:00;57.98;52.64;72.16;;
74531;Laerm;63010;55.668;37.878;2022-12-29T13:36:40;59.30;53.90;77.80;;
74531;Laerm;63010;55.668;37.878;2022-12-29T13:39:22;56.81;52.79;63.51;;
74531;Laerm;63010;55.668;37.878;2022-12-29T13:41:56;56.92;51.95;60.87;;
74531;Laerm;63010;55.668;37.878;2022-12-29T13:44:30;57.77;52.61;63.09;;
74531;Laerm;63010;55.668;37.878;2022-12-29T13:47:00;57.23;52.17;61.35;;
74531;Laerm;63010;55.668;37.878;2022-12-29T13:49:27;57.77;52.34;62.74;;
74531;Laerm;63010;55.668;37.878;2022-12-29T13:51:56;57.93;53.82;62.63;;
74531;Laerm;63010;55.668;37.878;2022-12-29T13:57:48;57.78;53.43;62.94;;
74531;Laerm;63010;55.668;37.878;2022-12-29T14:00:20;57.48;52.87;62.11;;
74531;Laerm;63010;55.668;37.878;2022-12-29T14:07:48;57.39;53.82;62.03;;
74531;Laerm;63010;55.668;37.878;2022-12-29T14:10:31;57.56;53.65;64.16;;
74531;Laerm;63010;55.668;37.878;2022-12-29T14:13:10;57.92;52.52;67.57;;
74531;Laerm;63010;55.668;37.878;2022-12-29T14:15:39;56.97;51.88;61.00;;
74531;Laerm;63010;55.668;37.878;2022-12-29T14:18:19;57.51;53.16;65.68;;
74531;Laerm;63010;55.668;37.878;2022-12-29T14:20:54;57.40;52.50;65.36;;
74531;Laerm;63010;55.668;37.878;2022-12-29T14:23:28;58.89;53.50;68.87;;
74531;Laerm;63010;55.668;37.878;2022-12-29T14:28:31;57.81;53.23;65.91;;
74531;Laerm;63010;55.668;37.878;2022-12-29T14:31:02;57.46;52.67;64.89;;
74531;Laerm;63010;55.668;37.878;2022-12-29T14:33:33;58.52;54.68;69.55;;
74531;Laerm;63010;55.668;37.878;2022-12-29T14:36:20;56.62;51.96;63.12;;
74531;Laerm;63010;55.668;37.878;2022-12-29T14:38:47;57.03;51.95;62.21;;
74531;Laerm;63010;55.668;37.878;2022-12-29T14:44:14;57.47;53.49;65.66;;
74531;Laerm;63010;55.668;37.878;2022-12-29T14:49:21;58.50;54.02;64.15;;
74531;Laerm;63010;55.668;37.878;2022-12-29T14:51:51;58.86;54.07;64.39;;
74531;Laerm;63010;55.668;37.878;2022-12-29T14:57:00;58.01;54.78;62.18;;
74531;Laerm;63010;55.668;37.878;2022-12-29T14:59:29;57.00;53.58;60.81;;
74531;Laerm;63010;55.668;37.878;2022-12-29T15:01:56;58.24;54.05;64.96;;
74531;Laerm;63010;55.668;37.878;2022-12-29T15:04:26;57.85;54.34;64.91;;
74531;Laerm;63010;55.668;37.878;2022-12-29T15:06:55;58.48;54.39;66.08;;
74531;Laerm;63010;55.668;37.878;2022-12-29T15:09:36;58.91;54.39;68.94;;
74531;Laerm;63010;55.668;37.878;2022-12-29T15:14:59;57.78;53.99;62.59;;
74531;Laerm;63010;55.668;37.878;2022-12-29T15:17:33;58.27;53.57;63.48;;
74531;Laerm;63010;55.668;37.878;2022-12-29T15:20:14;58.99;54.46;71.29;;
74531;Laerm;63010;55.668;37.878;2022-12-29T15:22:45;58.38;53.84;65.55;;
74531;Laerm;63010;55.668;37.878;2022-12-29T15:25:15;58.80;55.43;70.15;;
74531;Laerm;63010;55.668;37.878;2022-12-29T15:27:41;59.02;54.99;67.00;;
74531;Laerm;63010;55.668;37.878;2022-12-29T15:30:13;58.27;54.41;64.06;;
74531;Laerm;63010;55.668;37.878;2022-12-29T15:32:40;58.41;54.58;64.80;;
74531;Laerm;63010;55.668;37.878;2022-12-29T15:37:54;58.12;54.12;63.66;;
74531;Laerm;63010;55.668;37.878;2022-12-29T15:40:27;58.48;53.16;70.44;;
74531;Laerm;63010;55.668;37.878;2022-12-29T15:45:33;59.05;54.89;71.07;;
74531;Laerm;63010;55.668;37.878;2022-12-29T15:48:01;58.46;55.14;64.35;;
74531;Laerm;63010;55.668;37.878;2022-12-29T15:50:29;57.93;54.40;68.38;;
74531;Laerm;63010;55.668;37.878;2022-12-29T15:52:56;57.69;53.26;63.56;;
74531;Laerm;63010;55.668;37.878;2022-12-29T15:57:59;57.36;53.28;64.32;;